createdAt,value
2017-11-03T00:00:40.155Z,31.04
2017-11-03T00:03:07.643Z,31.82
2017-11-03T00:05:36.686Z,33.90
2017-11-03T00:08:05.916Z,31.78
2017-11-03T00:10:34.871Z,34.36
2017-11-03T00:13:03.127Z,32.96
2017-11-03T00:15:31.431Z,35.30
2017-11-03T00:17:59.692Z,33.60
2017-11-03T00:20:27.966Z,34.90
2017-11-03T00:22:56.271Z,33.60
2017-11-03T00:25:24.531Z,33.40
2017-11-03T00:27:52.835Z,36.86
2017-11-03T00:30:21.086Z,35.56
2017-11-03T00:32:49.340Z,36.58
2017-11-03T00:35:17.634Z,33.44
2017-11-03T00:37:47.080Z,32.44
2017-11-03T00:40:15.383Z,31.24
2017-11-03T00:42:43.634Z,32.08
2017-11-03T00:45:11.883Z,33.60
2017-11-03T00:47:40.199Z,34.32
2017-11-03T00:50:08.460Z,35.18
2017-11-03T00:52:36.724Z,31.72
2017-11-03T00:55:06.030Z,34.74
2017-11-03T00:57:33.518Z,34.14
2017-11-03T01:00:01.766Z,34.40
2017-11-03T01:02:30.055Z,32.10
2017-11-03T01:04:58.308Z,30.48
2017-11-03T01:07:26.594Z,35.20
2017-11-03T01:09:54.858Z,33.64
2017-11-03T01:12:23.149Z,32.70
2017-11-03T01:14:51.414Z,33.56
2017-11-03T01:17:19.716Z,31.68
2017-11-03T01:19:47.977Z,32.76
2017-11-03T01:22:16.940Z,33.96
2017-11-03T01:24:45.243Z,34.28
2017-11-03T01:27:13.526Z,31.56
2017-11-03T01:29:41.787Z,30.82
2017-11-03T01:32:10.075Z,29.84
2017-11-03T01:34:38.339Z,32.28
2017-11-03T01:37:06.639Z,32.00
2017-11-03T01:39:35.355Z,28.42
2017-11-03T01:42:03.643Z,32.90
2017-11-03T01:44:31.927Z,30.72
2017-11-03T01:47:00.186Z,31.02
2017-11-03T01:49:28.466Z,31.18
2017-11-03T01:51:56.774Z,32.52
2017-11-03T01:54:25.043Z,33.04
2017-11-03T01:56:53.299Z,32.80
2017-11-03T01:59:20.827Z,32.76
2017-11-03T02:01:49.098Z,33.08
2017-11-03T02:04:17.348Z,33.76
2017-11-03T02:06:46.798Z,32.20
2017-11-03T02:09:15.998Z,31.68
2017-11-03T02:11:44.728Z,31.12
2017-11-03T02:14:12.982Z,30.82
2017-11-03T02:16:41.231Z,32.58
2017-11-03T02:19:09.532Z,29.64
2017-11-03T02:21:37.802Z,33.54
2017-11-03T02:24:06.994Z,30.74
2017-11-03T02:26:35.284Z,31.96
2017-11-03T02:29:03.548Z,32.90
2017-11-03T02:31:31.808Z,30.56
2017-11-03T02:34:00.087Z,34.42
2017-11-03T02:36:28.358Z,32.46
2017-11-03T02:38:56.643Z,33.32
2017-11-03T02:41:24.896Z,33.82
2017-11-03T02:43:53.199Z,32.66
2017-11-03T02:46:21.456Z,31.92
2017-11-03T02:48:49.747Z,32.18
2017-11-03T02:51:18.007Z,34.86
2017-11-03T02:53:46.358Z,34.50
2017-11-03T02:56:15.720Z,36.34
2017-11-03T02:58:43.976Z,34.98
2017-11-03T03:01:12.272Z,35.88
2017-11-03T03:03:40.555Z,37.10
2017-11-03T03:06:08.824Z,37.50
2017-11-03T03:08:37.103Z,35.64
2017-11-03T03:11:05.363Z,37.76
2017-11-03T03:13:33.647Z,37.46
2017-11-03T03:16:01.916Z,32.58
2017-11-03T03:18:30.208Z,32.96
2017-11-03T03:20:58.475Z,36.66
2017-11-03T03:23:26.776Z,33.86
2017-11-03T03:25:55.066Z,37.94
2017-11-03T03:28:23.354Z,36.12
2017-11-03T03:30:51.647Z,36.42
2017-11-03T03:33:19.921Z,36.08
2017-11-03T03:35:48.175Z,38.36
2017-11-03T03:38:16.466Z,39.78
2017-11-03T03:40:44.776Z,40.70
2017-11-03T03:43:13.098Z,37.14
2017-11-03T03:45:41.363Z,35.00
2017-11-03T03:48:09.653Z,37.46
2017-11-03T03:50:37.949Z,38.98
2017-11-03T03:53:06.995Z,36.14
2017-11-03T03:55:35.282Z,36.90
2017-11-03T03:58:03.551Z,38.10
2017-11-03T04:00:31.854Z,36.82
2017-11-03T04:03:00.123Z,38.34
2017-11-03T04:05:28.435Z,36.82
2017-11-03T04:07:56.705Z,40.78
2017-11-03T04:10:24.969Z,38.36
2017-11-03T04:12:53.271Z,37.14
2017-11-03T04:15:21.532Z,37.24
2017-11-03T04:17:49.820Z,38.58
2017-11-03T04:20:18.080Z,41.48
2017-11-03T04:22:46.443Z,40.54
2017-11-03T04:25:15.739Z,36.26
2017-11-03T04:27:44.000Z,39.58
2017-11-03T04:30:12.615Z,41.10
2017-11-03T04:32:40.875Z,37.58
2017-11-03T04:35:09.176Z,43.26
2017-11-03T04:37:37.439Z,38.82
2017-11-03T04:40:06.947Z,38.96
2017-11-03T04:42:36.221Z,37.38
2017-11-03T04:45:04.497Z,38.64
2017-11-03T04:47:32.791Z,40.72
2017-11-03T04:50:01.075Z,40.60
2017-11-03T04:52:29.372Z,39.78
2017-11-03T04:54:57.631Z,37.84
2017-11-03T04:57:25.163Z,38.82
2017-11-03T04:59:53.423Z,39.98
2017-11-03T05:02:21.715Z,34.98
2017-11-03T05:04:50.012Z,36.36
2017-11-03T05:07:18.279Z,35.56
2017-11-03T05:09:46.567Z,39.10
2017-11-03T05:12:14.872Z,35.70
2017-11-03T05:14:43.176Z,37.26
2017-11-03T05:17:11.435Z,38.94
2017-11-03T05:19:39.693Z,40.00
2017-11-03T05:22:07.983Z,40.88
2017-11-03T05:24:37.186Z,38.36
2017-11-03T05:27:05.859Z,40.02
2017-11-03T05:29:35.647Z,42.98
2017-11-03T05:32:04.044Z,43.06
2017-11-03T05:34:33.244Z,39.26
2017-11-03T05:37:01.551Z,38.14
2017-11-03T05:39:29.808Z,40.18
2017-11-03T05:41:58.071Z,39.80
2017-11-03T05:44:26.363Z,41.00
2017-11-03T05:46:54.635Z,40.20
2017-11-03T05:49:22.911Z,40.88
2017-11-03T05:51:51.220Z,38.52
2017-11-03T05:54:19.482Z,39.36
2017-11-03T05:57:08.160Z,39.14
2017-11-03T05:59:36.423Z,40.38
2017-11-03T06:02:05.751Z,39.68
2017-11-03T06:04:34.032Z,42.22
2017-11-03T06:07:01.529Z,40.92
2017-11-03T06:09:29.823Z,40.06
2017-11-03T06:11:58.119Z,39.64
2017-11-03T06:14:26.379Z,42.46
2017-11-03T06:16:53.913Z,43.20
2017-11-03T06:19:22.177Z,42.16
2017-11-03T06:21:50.443Z,45.86
2017-11-03T06:24:18.748Z,40.66
2017-11-03T06:26:47.014Z,40.74
2017-11-03T06:29:15.304Z,41.84
2017-11-03T06:31:43.560Z,39.84
2017-11-03T06:34:11.115Z,38.56
2017-11-03T06:36:39.375Z,39.44
2017-11-03T06:39:06.863Z,40.92
2017-11-03T06:41:35.983Z,40.16
2017-11-03T06:44:05.144Z,40.08
2017-11-03T06:46:33.427Z,39.84
2017-11-03T06:49:01.715Z,38.98
2017-11-03T06:51:29.990Z,41.02
2017-11-03T06:53:58.292Z,38.88
2017-11-03T06:56:26.550Z,37.24
2017-11-03T06:58:54.841Z,40.32
2017-11-03T07:01:23.107Z,37.10
2017-11-03T07:03:51.399Z,40.06
2017-11-03T07:06:19.656Z,43.10
2017-11-03T07:08:47.946Z,41.70
2017-11-03T07:11:16.830Z,41.42
2017-11-03T07:13:46.161Z,40.32
2017-11-03T07:16:14.826Z,42.64
2017-11-03T07:18:43.127Z,41.62
2017-11-03T07:21:11.396Z,42.90
2017-11-03T07:23:39.647Z,40.86
2017-11-03T07:26:07.959Z,38.90
2017-11-03T07:28:36.767Z,39.64
2017-11-03T07:31:06.019Z,41.96
2017-11-03T07:33:34.336Z,41.04
2017-11-03T07:36:02.604Z,42.54
2017-11-03T07:38:30.903Z,44.30
2017-11-03T07:40:59.159Z,42.80
2017-11-03T07:43:27.428Z,41.76
2017-11-03T07:45:55.719Z,44.12
2017-11-03T07:48:24.007Z,42.18
2017-11-03T07:50:52.267Z,43.82
2017-11-03T07:53:20.559Z,44.10
2017-11-03T07:55:48.820Z,46.80
2017-11-03T07:58:17.088Z,43.76
2017-11-03T08:00:45.387Z,49.10
2017-11-03T08:03:13.708Z,49.08
2017-11-03T08:05:41.971Z,44.56
2017-11-03T08:08:10.226Z,44.34
2017-11-03T08:10:38.536Z,47.94
2017-11-03T08:13:07.194Z,50.90
2017-11-03T08:15:36.870Z,50.50
2017-11-03T08:18:06.125Z,51.04
2017-11-03T08:20:34.379Z,51.44
2017-11-03T08:23:02.673Z,52.34
2017-11-03T08:25:30.932Z,48.30
2017-11-03T08:27:59.224Z,47.40
2017-11-03T08:30:27.486Z,46.38
2017-11-03T08:32:55.794Z,47.24
2017-11-03T08:35:24.055Z,48.50
2017-11-03T08:37:51.554Z,48.56
2017-11-03T08:40:19.843Z,43.88
2017-11-03T08:42:48.094Z,48.14
2017-11-03T08:45:17.059Z,50.14
2017-11-03T08:47:45.311Z,51.24
2017-11-03T08:50:15.052Z,50.08
2017-11-03T08:52:43.311Z,50.72
2017-11-03T08:55:11.592Z,50.24
2017-11-03T08:57:39.887Z,48.94
2017-11-03T09:00:08.188Z,53.88
2017-11-03T09:02:36.452Z,52.84
2017-11-03T09:05:05.648Z,48.68
2017-11-03T09:07:33.947Z,54.12
2017-11-03T09:10:02.219Z,53.20
2017-11-03T09:12:30.517Z,48.80
2017-11-03T09:14:58.812Z,54.14
2017-11-03T09:17:27.082Z,51.18
2017-11-03T09:19:55.370Z,48.46
2017-11-03T09:22:23.646Z,52.60
2017-11-03T09:24:51.902Z,51.36
2017-11-03T09:27:20.204Z,48.10
2017-11-03T09:29:48.469Z,53.08
2017-11-03T09:32:16.724Z,54.80
2017-11-03T09:34:45.695Z,48.02
2017-11-03T09:37:13.967Z,50.80
2017-11-03T09:39:41.475Z,48.24
2017-11-03T09:42:09.768Z,50.40
2017-11-03T09:44:38.099Z,48.96
2017-11-03T09:47:12.856Z,44.88
2017-11-03T09:49:41.143Z,49.44
2017-11-03T09:52:09.403Z,49.56
2017-11-03T09:54:37.695Z,48.34
2017-11-03T09:57:07.112Z,50.24
2017-11-03T09:59:35.407Z,45.18
2017-11-03T10:02:03.664Z,47.30
2017-11-03T10:04:31.927Z,46.78
2017-11-03T10:07:00.235Z,46.96
2017-11-03T10:09:28.488Z,46.06
2017-11-03T10:11:56.751Z,48.36
2017-11-03T10:14:25.045Z,45.38
2017-11-03T10:16:53.348Z,42.88
2017-11-03T10:19:21.604Z,48.38
2017-11-03T10:21:49.904Z,46.98
2017-11-03T10:24:18.163Z,44.94
2017-11-03T10:26:46.511Z,45.20
2017-11-03T10:29:15.653Z,45.56
2017-11-03T10:31:43.903Z,45.34
2017-11-03T10:34:12.196Z,45.96
2017-11-03T10:36:40.459Z,45.84
2017-11-03T10:39:16.973Z,45.38
2017-11-03T10:41:46.226Z,42.16
2017-11-03T10:44:14.898Z,42.78
2017-11-03T10:46:43.203Z,47.16
2017-11-03T10:49:11.460Z,42.42
2017-11-03T10:51:39.721Z,43.32
2017-11-03T10:54:08.069Z,41.30
2017-11-03T10:56:36.370Z,42.30
2017-11-03T10:59:05.809Z,40.92
2017-11-03T11:01:35.768Z,45.12
2017-11-03T11:04:05.620Z,41.22
2017-11-03T11:06:36.210Z,38.98
2017-11-03T11:09:05.596Z,62.66
2017-11-03T11:11:33.905Z,57.04
2017-11-03T11:14:02.164Z,44.52
2017-11-03T11:16:30.423Z,40.72
2017-11-03T11:18:58.715Z,43.22
2017-11-03T11:21:27.004Z,42.86
2017-11-03T11:23:55.291Z,44.42
2017-11-03T11:26:23.540Z,47.30
2017-11-03T11:28:53.779Z,40.78
2017-11-03T11:31:22.031Z,41.60
2017-11-03T11:33:50.316Z,43.08
2017-11-03T11:36:18.605Z,39.36
2017-11-03T11:38:46.859Z,40.00
2017-11-03T11:41:16.424Z,39.20
2017-11-03T11:43:45.644Z,40.14
2017-11-03T11:46:13.908Z,38.86
2017-11-03T11:48:42.195Z,39.78
2017-11-03T11:51:10.479Z,39.68
2017-11-03T11:53:39.588Z,36.30
2017-11-03T11:56:07.884Z,36.62
2017-11-03T11:58:37.618Z,37.28
2017-11-03T12:01:06.879Z,38.60
2017-11-03T12:03:36.075Z,37.80
2017-11-03T12:06:04.352Z,36.78
2017-11-03T12:08:32.662Z,38.42
2017-11-03T12:11:06.693Z,35.66
2017-11-03T12:13:35.975Z,36.52
2017-11-03T12:16:11.776Z,35.98
2017-11-03T12:18:40.064Z,36.36
2017-11-03T12:21:08.320Z,38.38
2017-11-03T12:23:36.611Z,39.36
2017-11-03T12:26:05.795Z,40.54
2017-11-03T12:28:34.407Z,37.78
2017-11-03T12:31:02.703Z,38.86
2017-11-03T12:33:30.955Z,38.04
2017-11-03T12:35:59.220Z,38.04
2017-11-03T12:38:27.523Z,37.98
2017-11-03T12:40:55.800Z,39.08
2017-11-03T12:43:24.064Z,38.00
2017-11-03T12:45:52.354Z,36.20
2017-11-03T12:48:20.613Z,38.44
2017-11-03T12:50:48.899Z,39.00
2017-11-03T12:53:16.852Z,41.12
2017-11-03T12:55:46.564Z,38.04
2017-11-03T12:58:15.866Z,39.64
2017-11-03T13:00:44.171Z,38.58
2017-11-03T13:03:12.472Z,36.94
2017-11-03T13:05:40.804Z,36.22
2017-11-03T13:08:09.076Z,38.94
2017-11-03T13:10:37.348Z,39.38
2017-11-03T13:13:06.902Z,38.50
2017-11-03T13:15:36.025Z,37.28
2017-11-03T13:18:05.020Z,37.74
2017-11-03T13:20:33.281Z,39.56
2017-11-03T13:23:01.575Z,37.18
2017-11-03T13:25:29.843Z,37.52
2017-11-03T13:27:58.140Z,37.70
2017-11-03T13:30:26.399Z,37.48
2017-11-03T13:32:53.895Z,38.16
2017-11-03T13:35:22.167Z,38.18
2017-11-03T13:37:50.431Z,41.06
2017-11-03T13:40:18.732Z,38.74
2017-11-03T13:42:47.048Z,37.32
2017-11-03T13:45:16.384Z,35.28
2017-11-03T13:47:45.321Z,36.78
2017-11-03T13:50:13.644Z,35.76
2017-11-03T13:52:41.899Z,34.88
2017-11-03T13:55:10.183Z,34.16
2017-11-03T13:57:38.520Z,38.10
2017-11-03T14:00:06.815Z,32.34
2017-11-03T14:02:36.044Z,32.38
2017-11-03T14:05:05.131Z,36.60
2017-11-03T14:07:33.410Z,35.70
2017-11-03T14:10:01.673Z,31.12
2017-11-03T14:12:29.971Z,36.76
2017-11-03T14:14:58.227Z,36.16
2017-11-03T14:17:26.496Z,33.52
2017-11-03T14:19:54.799Z,32.88
2017-11-03T14:22:23.103Z,31.18
2017-11-03T14:24:51.364Z,30.38
2017-11-03T14:27:19.670Z,31.26
2017-11-03T14:29:47.988Z,32.28
2017-11-03T14:32:19.900Z,30.20
2017-11-03T14:34:48.200Z,29.94
2017-11-03T14:37:20.031Z,29.72
2017-11-03T14:39:48.312Z,28.18
2017-11-03T14:42:16.596Z,26.82
2017-11-03T14:44:45.611Z,27.40
2017-11-03T14:47:17.576Z,30.06
2017-11-03T14:49:47.114Z,27.88
2017-11-03T14:52:16.245Z,29.54
2017-11-03T14:54:44.979Z,29.82
2017-11-03T14:57:16.935Z,30.60
2017-11-03T14:59:46.025Z,30.34
2017-11-03T15:02:14.947Z,29.22
2017-11-03T15:04:43.211Z,29.44
2017-11-03T15:07:12.499Z,27.96
2017-11-03T15:09:40.795Z,28.98
2017-11-03T15:12:09.092Z,30.94
2017-11-03T15:14:36.588Z,28.98
2017-11-03T15:17:05.768Z,28.16
2017-11-03T15:19:35.699Z,27.52
2017-11-03T15:22:03.999Z,28.40
2017-11-03T15:24:32.317Z,29.32
2017-11-03T15:27:00.587Z,27.60
2017-11-03T15:29:28.876Z,27.22
2017-11-03T15:31:57.140Z,27.58
2017-11-03T15:34:24.631Z,28.32
2017-11-03T15:36:52.928Z,28.60
2017-11-03T15:39:21.179Z,26.56
2017-11-03T15:41:49.437Z,28.40
2017-11-03T15:44:17.732Z,27.46
2017-11-03T15:46:45.996Z,26.98
2017-11-03T15:49:14.253Z,26.00
2017-11-03T15:51:42.547Z,29.06
2017-11-03T15:54:10.843Z,27.20
2017-11-03T15:56:39.127Z,26.48
2017-11-03T15:59:07.379Z,26.94
2017-11-03T16:01:36.855Z,27.34
2017-11-03T16:04:05.964Z,26.66
2017-11-03T16:06:35.062Z,26.20
2017-11-03T16:09:03.363Z,27.32
2017-11-03T16:11:31.619Z,25.72
2017-11-03T16:13:59.939Z,26.46
2017-11-03T16:16:28.203Z,24.24
2017-11-03T16:18:56.460Z,28.44
2017-11-03T16:21:24.731Z,24.20
2017-11-03T16:23:52.983Z,26.78
2017-11-03T16:26:21.272Z,24.94
2017-11-03T16:28:49.559Z,24.08
2017-11-03T16:31:17.847Z,27.50
2017-11-03T16:33:47.099Z,26.82
2017-11-03T16:36:16.183Z,25.80
2017-11-03T16:38:45.073Z,25.36
2017-11-03T16:41:13.369Z,27.10
2017-11-03T16:43:41.687Z,25.72
2017-11-03T16:46:09.943Z,25.62
2017-11-03T16:48:38.200Z,26.08
2017-11-03T16:51:06.499Z,26.08
2017-11-03T16:53:35.817Z,27.90
2017-11-03T16:56:05.703Z,25.98
2017-11-03T16:58:33.994Z,25.70
2017-11-03T17:01:02.249Z,24.12
2017-11-03T17:03:30.540Z,24.72
2017-11-03T17:05:58.800Z,27.02
2017-11-03T17:08:26.343Z,26.36
2017-11-03T17:10:54.610Z,25.28
2017-11-03T17:13:22.872Z,25.66
2017-11-03T17:15:51.156Z,25.78
2017-11-03T17:18:19.421Z,27.36
2017-11-03T17:20:47.703Z,26.66
2017-11-03T17:23:16.716Z,25.88
2017-11-03T17:25:45.047Z,27.96
2017-11-03T17:28:13.303Z,24.10
2017-11-03T17:30:41.567Z,26.58
2017-11-03T17:33:09.868Z,28.92
2017-11-03T17:35:38.176Z,27.34
2017-11-03T17:38:06.880Z,30.12
2017-11-03T17:40:38.303Z,26.60
2017-11-03T17:43:06.903Z,27.60
2017-11-03T17:45:35.712Z,25.12
2017-11-03T17:48:04.008Z,25.82
2017-11-03T17:50:32.305Z,26.46
2017-11-03T17:53:00.605Z,26.24
2017-11-03T17:55:28.884Z,26.14
2017-11-03T17:57:57.150Z,27.28
2017-11-03T18:00:25.435Z,27.58
2017-11-03T18:02:53.735Z,26.88
2017-11-03T18:05:22.011Z,26.90
2017-11-03T18:07:53.641Z,27.42
2017-11-03T18:10:21.923Z,26.72
2017-11-03T18:12:50.255Z,25.84
2017-11-03T18:15:18.520Z,27.32
2017-11-03T18:17:46.847Z,26.50
2017-11-03T18:20:15.844Z,24.12
2017-11-03T18:22:44.114Z,26.24
2017-11-03T18:25:12.418Z,25.62
2017-11-03T18:27:40.684Z,25.02
2017-11-03T18:30:08.951Z,23.24
2017-11-03T18:32:37.244Z,26.24
2017-11-03T18:35:06.044Z,25.52
2017-11-03T18:37:34.705Z,26.80
2017-11-03T18:40:03.036Z,25.64
2017-11-03T18:42:31.328Z,24.40
2017-11-03T18:44:59.628Z,26.60
2017-11-03T18:47:27.160Z,25.54
2017-11-03T18:49:55.456Z,24.88
2017-11-03T18:52:23.780Z,24.30
2017-11-03T18:54:52.077Z,25.74
2017-11-03T18:57:20.404Z,26.28
2017-11-03T18:59:48.706Z,26.16
2017-11-03T19:02:18.015Z,24.34
2017-11-03T19:04:45.599Z,24.58
2017-11-03T19:07:13.851Z,29.04
2017-11-03T19:09:41.384Z,25.24
2017-11-03T19:12:09.726Z,25.54
2017-11-03T19:14:38.012Z,23.26
2017-11-03T19:17:12.068Z,24.44
2017-11-03T19:19:40.336Z,22.98
2017-11-03T19:22:08.588Z,22.84
2017-11-03T19:24:36.935Z,24.72
2017-11-03T19:27:05.641Z,24.70
2017-11-03T19:29:33.940Z,23.72
2017-11-03T19:32:02.203Z,25.92
2017-11-03T19:34:30.550Z,24.28
2017-11-03T19:36:58.843Z,26.12
2017-11-03T19:39:27.171Z,25.00
2017-11-03T19:41:55.482Z,25.18
2017-11-03T19:44:23.775Z,25.78
2017-11-03T19:46:52.043Z,26.72
2017-11-03T19:49:20.327Z,24.60
2017-11-03T19:51:48.599Z,26.48
2017-11-03T19:54:17.135Z,26.24
2017-11-03T19:56:46.158Z,25.32
2017-11-03T19:59:15.037Z,26.52
2017-11-03T20:01:43.350Z,27.02
2017-11-03T20:04:11.691Z,28.08
2017-11-03T20:06:40.042Z,29.16
2017-11-03T20:09:08.296Z,28.98
2017-11-03T20:11:40.320Z,26.18
2017-11-03T20:14:08.646Z,27.26
2017-11-03T20:16:40.319Z,25.06
2017-11-03T20:19:08.630Z,26.92
2017-11-03T20:21:37.023Z,24.80
2017-11-03T20:24:05.334Z,24.18
2017-11-03T20:26:33.608Z,24.48
2017-11-03T20:29:01.930Z,24.56
2017-11-03T20:31:30.299Z,23.54
2017-11-03T20:33:58.619Z,25.80
2017-11-03T20:36:26.956Z,23.58
2017-11-03T20:38:55.219Z,23.90
2017-11-03T20:41:23.563Z,23.82
2017-11-03T20:43:51.879Z,25.00
2017-11-03T20:46:20.230Z,24.08
2017-11-03T20:48:48.543Z,25.14
2017-11-03T20:51:16.898Z,23.08
2017-11-03T20:53:46.295Z,23.18
2017-11-03T20:56:14.647Z,21.54
2017-11-03T20:58:42.995Z,24.64
2017-11-03T21:01:11.253Z,25.06
2017-11-03T21:03:39.591Z,23.92
2017-11-03T21:06:07.914Z,27.22
2017-11-03T21:08:37.115Z,27.10
2017-11-03T21:11:05.464Z,24.44
2017-11-03T21:13:33.774Z,22.46
2017-11-03T21:16:02.087Z,25.30
2017-11-03T21:18:30.399Z,25.00
2017-11-03T21:20:58.656Z,26.06
2017-11-03T21:23:26.951Z,25.58
2017-11-03T21:25:55.259Z,28.72
2017-11-03T21:28:23.511Z,24.54
2017-11-03T21:30:51.852Z,28.78
2017-11-03T21:33:20.110Z,25.80
2017-11-03T21:35:48.452Z,25.82
2017-11-03T21:38:16.717Z,23.66
2017-11-03T21:40:45.903Z,24.38
2017-11-03T21:43:14.187Z,24.78
2017-11-03T21:45:48.924Z,23.44
2017-11-03T21:48:17.267Z,22.88
2017-11-03T21:50:45.575Z,23.12
2017-11-03T21:53:13.928Z,23.10
2017-11-03T21:55:42.209Z,21.14
2017-11-03T21:58:11.447Z,22.92
2017-11-03T22:00:39.802Z,22.50
2017-11-03T22:03:08.108Z,24.70
2017-11-03T22:05:37.335Z,25.50
2017-11-03T22:08:05.327Z,26.60
2017-11-03T22:10:33.578Z,28.52
2017-11-03T22:13:01.864Z,26.40
2017-11-03T22:15:30.114Z,23.84
2017-11-03T22:17:58.414Z,24.74
2017-11-03T22:20:26.738Z,24.82
2017-11-03T22:22:55.035Z,23.08
2017-11-03T22:25:23.380Z,23.38
2017-11-03T22:27:51.649Z,24.84
2017-11-03T22:30:19.945Z,23.54
2017-11-03T22:32:48.236Z,24.38
2017-11-03T22:35:17.719Z,21.92
2017-11-03T22:37:47.177Z,23.62
2017-11-03T22:40:15.131Z,22.70
2017-11-03T22:42:43.424Z,23.86
2017-11-03T22:45:11.678Z,25.18
2017-11-03T22:47:39.992Z,24.14
2017-11-03T22:50:08.275Z,21.68
2017-11-03T22:52:36.573Z,22.52
2017-11-03T22:55:05.790Z,24.64
2017-11-03T22:57:35.649Z,24.12
2017-11-03T23:00:03.996Z,23.16
2017-11-03T23:02:32.271Z,21.44
2017-11-03T23:05:00.526Z,21.68
2017-11-03T23:07:28.856Z,20.78
2017-11-03T23:09:57.116Z,22.32
2017-11-03T23:12:25.399Z,23.96
2017-11-03T23:14:53.680Z,24.96
2017-11-03T23:17:21.936Z,25.46
2017-11-03T23:19:50.274Z,24.94
2017-11-03T23:22:18.532Z,24.70
2017-11-03T23:24:46.815Z,23.44
2017-11-03T23:27:18.752Z,24.14
2017-11-03T23:29:47.356Z,24.28
2017-11-03T23:32:15.602Z,22.38
2017-11-03T23:34:43.862Z,24.08
2017-11-03T23:37:12.152Z,22.98
2017-11-03T23:39:40.439Z,24.28
2017-11-03T23:42:08.698Z,22.50
2017-11-03T23:44:36.950Z,24.42
2017-11-03T23:47:05.231Z,25.68
2017-11-03T23:49:33.484Z,24.44
2017-11-03T23:52:01.780Z,23.28
2017-11-03T23:54:30.044Z,21.06
2017-11-03T23:56:58.335Z,22.40
2017-11-03T23:59:26.624Z,21.28
